sensor_id;sensor_type;location;lat;lon;timestamp;temperature;humidity
34640;DHT22;22600;48.186;11.526;2024-03-02T00:01:51;22.10;48.70
34640;DHT22;22600;48.186;11.526;2024-03-02T00:04:16;22.10;48.60
34640;DHT22;22600;48.186;11.526;2024-03-02T00:11:34;22.10;48.70
34640;DHT22;22600;48.186;11.526;2024-03-02T00:14:00;22.10;48.70
34640;DHT22;22600;48.186;11.526;2024-03-02T00:16:29;22.10;48.60
34640;DHT22;22600;48.186;11.526;2024-03-02T00:18:55;22.10;48.60
34640;DHT22;22600;48.186;11.526;2024-03-02T00:23:48;22.10;48.60
34640;DHT22;22600;48.186;11.526;2024-03-02T00:28:43;22.10;48.60
34640;DHT22;22600;48.186;11.526;2024-03-02T00:31:13;22.10;48.60
34640;DHT22;22600;48.186;11.526;2024-03-02T00:36:05;22.10;48.60
34640;DHT22;22600;48.186;11.526;2024-03-02T00:38:32;22.10;48.60
34640;DHT22;22600;48.186;11.526;2024-03-02T00:41:07;22.10;48.60
34640;DHT22;22600;48.186;11.526;2024-03-02T00:43:41;22.10;48.60
34640;DHT22;22600;48.186;11.526;2024-03-02T00:46:07;22.10;48.60
34640;DHT22;22600;48.186;11.526;2024-03-02T00:48:33;22.10;48.60
34640;DHT22;22600;48.186;11.526;2024-03-02T00:51:01;22.10;48.70
34640;DHT22;22600;48.186;11.526;2024-03-02T00:53:28;22.10;48.70
34640;DHT22;22600;48.186;11.526;2024-03-02T00:55:54;22.10;48.60
34640;DHT22;22600;48.186;11.526;2024-03-02T00:58:20;22.10;48.60
34640;DHT22;22600;48.186;11.526;2024-03-02T01:00:45;22.10;48.60
34640;DHT22;22600;48.186;11.526;2024-03-02T01:05:39;22.10;48.60
34640;DHT22;22600;48.186;11.526;2024-03-02T01:08:06;22.10;48.60
34640;DHT22;22600;48.186;11.526;2024-03-02T01:10:31;22.10;48.70
34640;DHT22;22600;48.186;11.526;2024-03-02T01:12:57;22.10;48.60
34640;DHT22;22600;48.186;11.526;2024-03-02T01:15:22;22.10;48.60
34640;DHT22;22600;48.186;11.526;2024-03-02T01:20:13;22.10;48.60
34640;DHT22;22600;48.186;11.526;2024-03-02T01:22:39;22.10;48.60
34640;DHT22;22600;48.186;11.526;2024-03-02T01:25:04;22.10;48.60
34640;DHT22;22600;48.186;11.526;2024-03-02T01:27:30;22.10;48.60
34640;DHT22;22600;48.186;11.526;2024-03-02T01:29:55;22.10;48.60
34640;DHT22;22600;48.186;11.526;2024-03-02T01:32:21;22.10;48.60
34640;DHT22;22600;48.186;11.526;2024-03-02T01:39:38;22.10;48.50
34640;DHT22;22600;48.186;11.526;2024-03-02T01:42:04;22.10;48.60
34640;DHT22;22600;48.186;11.526;2024-03-02T01:46:55;22.10;48.50
34640;DHT22;22600;48.186;11.526;2024-03-02T01:49:21;22.10;48.50
34640;DHT22;22600;48.186;11.526;2024-03-02T01:51:46;22.00;48.50
34640;DHT22;22600;48.186;11.526;2024-03-02T01:54:11;22.10;48.60
34640;DHT22;22600;48.186;11.526;2024-03-02T01:56:37;22.10;48.60
34640;DHT22;22600;48.186;11.526;2024-03-02T01:59:02;22.10;48.60
34640;DHT22;22600;48.186;11.526;2024-03-02T02:01:28;22.10;48.60
34640;DHT22;22600;48.186;11.526;2024-03-02T02:03:54;22.10;48.60
34640;DHT22;22600;48.186;11.526;2024-03-02T02:06:19;22.10;48.60
34640;DHT22;22600;48.186;11.526;2024-03-02T02:08:45;22.10;48.50
34640;DHT22;22600;48.186;11.526;2024-03-02T02:13:38;22.10;48.60
34640;DHT22;22600;48.186;11.526;2024-03-02T02:16:04;22.10;48.60
34640;DHT22;22600;48.186;11.526;2024-03-02T02:20:55;22.10;48.50
34640;DHT22;22600;48.186;11.526;2024-03-02T02:23:20;22.00;48.50
34640;DHT22;22600;48.186;11.526;2024-03-02T02:28:12;22.10;48.50
34640;DHT22;22600;48.186;11.526;2024-03-02T02:30:37;22.10;48.50
34640;DHT22;22600;48.186;11.526;2024-03-02T02:35:29;22.10;48.60
34640;DHT22;22600;48.186;11.526;2024-03-02T02:37:55;22.10;48.60
34640;DHT22;22600;48.186;11.526;2024-03-02T02:40:22;22.10;48.50
34640;DHT22;22600;48.186;11.526;2024-03-02T02:42:47;22.10;48.50
34640;DHT22;22600;48.186;11.526;2024-03-02T02:45:13;22.10;48.50
34640;DHT22;22600;48.186;11.526;2024-03-02T02:47:42;22.10;48.50
34640;DHT22;22600;48.186;11.526;2024-03-02T02:50:08;22.10;48.60
34640;DHT22;22600;48.186;11.526;2024-03-02T02:55:01;22.00;48.50
34640;DHT22;22600;48.186;11.526;2024-03-02T02:57:28;22.10;48.50
34640;DHT22;22600;48.186;11.526;2024-03-02T02:59:55;22.10;48.60
34640;DHT22;22600;48.186;11.526;2024-03-02T03:02:20;22.10;48.60
34640;DHT22;22600;48.186;11.526;2024-03-02T03:04:46;22.10;48.60
34640;DHT22;22600;48.186;11.526;2024-03-02T03:07:11;22.10;48.60
34640;DHT22;22600;48.186;11.526;2024-03-02T03:09:37;22.10;48.60
34640;DHT22;22600;48.186;11.526;2024-03-02T03:12:04;22.10;48.60
34640;DHT22;22600;48.186;11.526;2024-03-02T03:14:29;22.00;48.50
34640;DHT22;22600;48.186;11.526;2024-03-02T03:16:55;22.10;48.50
34640;DHT22;22600;48.186;11.526;2024-03-02T03:21:46;22.10;48.50
34640;DHT22;22600;48.186;11.526;2024-03-02T03:24:12;22.10;48.40
34640;DHT22;22600;48.186;11.526;2024-03-02T03:29:03;22.10;48.50
34640;DHT22;22600;48.186;11.526;2024-03-02T03:31:29;22.10;48.50
34640;DHT22;22600;48.186;11.526;2024-03-02T03:36:20;22.00;48.50
34640;DHT22;22600;48.186;11.526;2024-03-02T03:38:45;22.10;48.50
34640;DHT22;22600;48.186;11.526;2024-03-02T03:41:11;22.10;48.50
34640;DHT22;22600;48.186;11.526;2024-03-02T03:43:36;22.10;48.50
34640;DHT22;22600;48.186;11.526;2024-03-02T03:46:02;22.10;48.50
34640;DHT22;22600;48.186;11.526;2024-03-02T03:48:28;22.10;48.50
34640;DHT22;22600;48.186;11.526;2024-03-02T03:50:58;22.10;48.50
34640;DHT22;22600;48.186;11.526;2024-03-02T03:55:50;22.10;48.50
34640;DHT22;22600;48.186;11.526;2024-03-02T03:58:15;22.10;48.50
34640;DHT22;22600;48.186;11.526;2024-03-02T04:00:44;22.10;48.50
34640;DHT22;22600;48.186;11.526;2024-03-02T04:03:09;22.10;48.50
34640;DHT22;22600;48.186;11.526;2024-03-02T04:05:34;22.00;48.40
34640;DHT22;22600;48.186;11.526;2024-03-02T04:08:00;22.10;48.50
34640;DHT22;22600;48.186;11.526;2024-03-02T04:10:26;22.00;48.40
34640;DHT22;22600;48.186;11.526;2024-03-02T04:12:51;22.10;48.50
34640;DHT22;22600;48.186;11.526;2024-03-02T04:15:17;22.10;48.50
34640;DHT22;22600;48.186;11.526;2024-03-02T04:17:44;22.10;48.50
34640;DHT22;22600;48.186;11.526;2024-03-02T04:20:09;22.00;48.50
34640;DHT22;22600;48.186;11.526;2024-03-02T04:22:35;22.10;48.50
34640;DHT22;22600;48.186;11.526;2024-03-02T04:25:01;22.10;48.50
34640;DHT22;22600;48.186;11.526;2024-03-02T04:27:27;22.10;48.40
34640;DHT22;22600;48.186;11.526;2024-03-02T04:29:52;22.10;48.50
34640;DHT22;22600;48.186;11.526;2024-03-02T04:32:17;22.10;48.50
34640;DHT22;22600;48.186;11.526;2024-03-02T04:34:44;22.10;48.50
34640;DHT22;22600;48.186;11.526;2024-03-02T04:37:10;22.10;48.50
34640;DHT22;22600;48.186;11.526;2024-03-02T04:39:37;22.10;48.50
34640;DHT22;22600;48.186;11.526;2024-03-02T04:42:03;22.10;48.50
34640;DHT22;22600;48.186;11.526;2024-03-02T04:44:28;21.90;48.40
34640;DHT22;22600;48.186;11.526;2024-03-02T04:46:53;22.00;48.40
34640;DHT22;22600;48.186;11.526;2024-03-02T04:49:19;22.10;48.40
34640;DHT22;22600;48.186;11.526;2024-03-02T04:54:10;22.10;48.50
34640;DHT22;22600;48.186;11.526;2024-03-02T04:56:36;22.00;48.40
34640;DHT22;22600;48.186;11.526;2024-03-02T04:59:09;22.00;48.40
34640;DHT22;22600;48.186;11.526;2024-03-02T05:01:35;22.10;48.50
34640;DHT22;22600;48.186;11.526;2024-03-02T05:04:00;22.00;48.40
34640;DHT22;22600;48.186;11.526;2024-03-02T05:06:25;22.10;48.50
34640;DHT22;22600;48.186;11.526;2024-03-02T05:08:51;22.10;48.50
34640;DHT22;22600;48.186;11.526;2024-03-02T05:11:16;22.10;48.50
34640;DHT22;22600;48.186;11.526;2024-03-02T05:16:22;22.00;48.40
34640;DHT22;22600;48.186;11.526;2024-03-02T05:18:47;22.10;48.50
34640;DHT22;22600;48.186;11.526;2024-03-02T05:23:39;22.00;48.50
34640;DHT22;22600;48.186;11.526;2024-03-02T05:26:04;22.00;48.40
34640;DHT22;22600;48.186;11.526;2024-03-02T05:28:30;22.00;48.40
34640;DHT22;22600;48.186;11.526;2024-03-02T05:30:55;22.10;48.50
34640;DHT22;22600;48.186;11.526;2024-03-02T05:33:21;22.00;48.40
34640;DHT22;22600;48.186;11.526;2024-03-02T05:35:48;22.00;48.40
34640;DHT22;22600;48.186;11.526;2024-03-02T05:38:15;22.10;48.40
34640;DHT22;22600;48.186;11.526;2024-03-02T05:40:40;22.10;48.40
34640;DHT22;22600;48.186;11.526;2024-03-02T05:43:06;22.10;48.50
34640;DHT22;22600;48.186;11.526;2024-03-02T05:45:31;22.00;48.40
34640;DHT22;22600;48.186;11.526;2024-03-02T05:47:57;22.10;48.40
34640;DHT22;22600;48.186;11.526;2024-03-02T05:52:48;22.10;48.40
34640;DHT22;22600;48.186;11.526;2024-03-02T05:55:14;22.10;48.40
34640;DHT22;22600;48.186;11.526;2024-03-02T06:00:06;22.00;48.40
34640;DHT22;22600;48.186;11.526;2024-03-02T06:02:33;22.00;48.40
34640;DHT22;22600;48.186;11.526;2024-03-02T06:05:00;22.00;48.40
34640;DHT22;22600;48.186;11.526;2024-03-02T06:07:25;22.00;48.40
34640;DHT22;22600;48.186;11.526;2024-03-02T06:09:51;22.10;48.40
34640;DHT22;22600;48.186;11.526;2024-03-02T06:12:18;22.00;48.40
34640;DHT22;22600;48.186;11.526;2024-03-02T06:14:43;22.10;48.40
34640;DHT22;22600;48.186;11.526;2024-03-02T06:17:09;22.10;48.40
34640;DHT22;22600;48.186;11.526;2024-03-02T06:19:34;22.00;48.40
34640;DHT22;22600;48.186;11.526;2024-03-02T06:24:25;22.10;48.50
34640;DHT22;22600;48.186;11.526;2024-03-02T06:26:51;22.00;48.40
34640;DHT22;22600;48.186;11.526;2024-03-02T06:31:43;22.00;48.40
34640;DHT22;22600;48.186;11.526;2024-03-02T06:34:08;22.00;48.40
34640;DHT22;22600;48.186;11.526;2024-03-02T06:38:59;22.00;48.40
34640;DHT22;22600;48.186;11.526;2024-03-02T06:41:25;22.00;48.40
34640;DHT22;22600;48.186;11.526;2024-03-02T06:48:51;22.00;48.30
34640;DHT22;22600;48.186;11.526;2024-03-02T06:51:16;22.00;48.30
34640;DHT22;22600;48.186;11.526;2024-03-02T06:53:42;22.00;48.30
34640;DHT22;22600;48.186;11.526;2024-03-02T06:56:07;22.00;48.30
34640;DHT22;22600;48.186;11.526;2024-03-02T06:58:33;22.00;48.30
34640;DHT22;22600;48.186;11.526;2024-03-02T07:00:59;22.10;48.30
34640;DHT22;22600;48.186;11.526;2024-03-02T07:03:25;22.10;48.40
34640;DHT22;22600;48.186;11.526;2024-03-02T07:05:51;22.00;48.30
34640;DHT22;22600;48.186;11.526;2024-03-02T07:08:16;22.00;48.30
34640;DHT22;22600;48.186;11.526;2024-03-02T07:10:42;22.00;48.30
34640;DHT22;22600;48.186;11.526;2024-03-02T07:13:07;22.00;48.30
34640;DHT22;22600;48.186;11.526;2024-03-02T07:15:33;22.00;48.30
34640;DHT22;22600;48.186;11.526;2024-03-02T07:18:19;22.00;48.30
34640;DHT22;22600;48.186;11.526;2024-03-02T07:20:44;22.00;48.20
34640;DHT22;22600;48.186;11.526;2024-03-02T07:23:09;22.00;48.30
34640;DHT22;22600;48.186;11.526;2024-03-02T07:25:35;22.10;48.30
34640;DHT22;22600;48.186;11.526;2024-03-02T07:28:00;22.00;48.20
34640;DHT22;22600;48.186;11.526;2024-03-02T07:30:26;19.90;47.30
34640;DHT22;22600;48.186;11.526;2024-03-02T07:32:52;22.00;48.20
34640;DHT22;22600;48.186;11.526;2024-03-02T07:35:17;22.10;48.40
34640;DHT22;22600;48.186;11.526;2024-03-02T07:37:43;22.10;48.40
34640;DHT22;22600;48.186;11.526;2024-03-02T07:40:09;22.10;48.40
34640;DHT22;22600;48.186;11.526;2024-03-02T07:45:02;22.10;48.40
34640;DHT22;22600;48.186;11.526;2024-03-02T07:47:27;22.10;48.30
34640;DHT22;22600;48.186;11.526;2024-03-02T07:52:19;22.10;48.40
34640;DHT22;22600;48.186;11.526;2024-03-02T07:54:44;22.10;48.30
34640;DHT22;22600;48.186;11.526;2024-03-02T07:57:10;22.10;48.30
34640;DHT22;22600;48.186;11.526;2024-03-02T07:59:36;22.10;48.30
34640;DHT22;22600;48.186;11.526;2024-03-02T08:04:27;22.10;48.50
34640;DHT22;22600;48.186;11.526;2024-03-02T08:09:20;22.20;48.70
34640;DHT22;22600;48.186;11.526;2024-03-02T08:14:11;22.20;48.80
34640;DHT22;22600;48.186;11.526;2024-03-02T08:16:36;22.20;48.60
34640;DHT22;22600;48.186;11.526;2024-03-02T08:19:02;22.20;48.60
34640;DHT22;22600;48.186;11.526;2024-03-02T08:21:28;22.20;48.60
34640;DHT22;22600;48.186;11.526;2024-03-02T08:23:56;22.20;48.50
34640;DHT22;22600;48.186;11.526;2024-03-02T08:26:22;22.20;48.50
34640;DHT22;22600;48.186;11.526;2024-03-02T08:31:13;22.20;48.50
34640;DHT22;22600;48.186;11.526;2024-03-02T08:38:31;22.30;48.50
34640;DHT22;22600;48.186;11.526;2024-03-02T08:40:57;22.30;48.40
34640;DHT22;22600;48.186;11.526;2024-03-02T08:45:48;22.30;48.30
34640;DHT22;22600;48.186;11.526;2024-03-02T08:48:14;22.30;48.30
34640;DHT22;22600;48.186;11.526;2024-03-02T08:50:40;22.30;48.30
34640;DHT22;22600;48.186;11.526;2024-03-02T08:53:05;22.30;48.30
34640;DHT22;22600;48.186;11.526;2024-03-02T08:55:31;22.40;48.40
34640;DHT22;22600;48.186;11.526;2024-03-02T08:57:56;22.30;48.20
34640;DHT22;22600;48.186;11.526;2024-03-02T09:00:22;22.30;48.20
34640;DHT22;22600;48.186;11.526;2024-03-02T09:02:48;22.40;48.20
34640;DHT22;22600;48.186;11.526;2024-03-02T09:05:13;22.40;48.20
34640;DHT22;22600;48.186;11.526;2024-03-02T09:07:38;22.40;48.20
34640;DHT22;22600;48.186;11.526;2024-03-02T09:10:05;22.40;48.20
34640;DHT22;22600;48.186;11.526;2024-03-02T09:12:30;22.40;48.10
34640;DHT22;22600;48.186;11.526;2024-03-02T09:14:56;22.40;48.10
34640;DHT22;22600;48.186;11.526;2024-03-02T09:19:47;22.30;48.00
34640;DHT22;22600;48.186;11.526;2024-03-02T09:22:12;22.40;48.00
34640;DHT22;22600;48.186;11.526;2024-03-02T09:27:04;22.40;48.00
34640;DHT22;22600;48.186;11.526;2024-03-02T09:29:31;22.40;48.00
34640;DHT22;22600;48.186;11.526;2024-03-02T09:31:56;22.50;48.20
34640;DHT22;22600;48.186;11.526;2024-03-02T09:34:21;22.50;48.10
34640;DHT22;22600;48.186;11.526;2024-03-02T09:36:47;22.50;48.00
34640;DHT22;22600;48.186;11.526;2024-03-02T09:41:39;22.40;48.00
34640;DHT22;22600;48.186;11.526;2024-03-02T09:44:05;22.50;48.00
34640;DHT22;22600;48.186;11.526;2024-03-02T09:46:31;22.50;48.00
34640;DHT22;22600;48.186;11.526;2024-03-02T09:48:58;22.50;48.10
34640;DHT22;22600;48.186;11.526;2024-03-02T09:51:24;22.50;48.00
34640;DHT22;22600;48.186;11.526;2024-03-02T09:53:50;22.50;48.10
34640;DHT22;22600;48.186;11.526;2024-03-02T09:58:41;22.50;48.10
34640;DHT22;22600;48.186;11.526;2024-03-02T10:08:44;22.50;48.10
34640;DHT22;22600;48.186;11.526;2024-03-02T10:11:09;22.50;48.10
34640;DHT22;22600;48.186;11.526;2024-03-02T10:13:34;22.50;48.10
34640;DHT22;22600;48.186;11.526;2024-03-02T10:16:03;22.50;48.00
34640;DHT22;22600;48.186;11.526;2024-03-02T10:21:15;22.50;48.10
34640;DHT22;22600;48.186;11.526;2024-03-02T10:26:16;22.50;48.10
34640;DHT22;22600;48.186;11.526;2024-03-02T10:31:07;22.50;48.10
34640;DHT22;22600;48.186;11.526;2024-03-02T10:33:33;22.50;48.10
34640;DHT22;22600;48.186;11.526;2024-03-02T10:35:59;22.50;48.10
34640;DHT22;22600;48.186;11.526;2024-03-02T10:38:24;22.50;48.10
34640;DHT22;22600;48.186;11.526;2024-03-02T10:40:50;22.50;48.10
34640;DHT22;22600;48.186;11.526;2024-03-02T10:43:16;22.50;48.20
34640;DHT22;22600;48.186;11.526;2024-03-02T10:45:42;22.40;48.10
34640;DHT22;22600;48.186;11.526;2024-03-02T10:48:07;22.50;48.20
34640;DHT22;22600;48.186;11.526;2024-03-02T10:50:33;22.50;48.20
34640;DHT22;22600;48.186;11.526;2024-03-02T10:52:58;22.50;48.20
34640;DHT22;22600;48.186;11.526;2024-03-02T10:55:24;22.50;48.20
34640;DHT22;22600;48.186;11.526;2024-03-02T10:57:53;22.40;48.10
34640;DHT22;22600;48.186;11.526;2024-03-02T11:03:11;22.50;48.20
34640;DHT22;22600;48.186;11.526;2024-03-02T11:05:36;22.40;48.20
34640;DHT22;22600;48.186;11.526;2024-03-02T11:08:02;22.40;48.20
34640;DHT22;22600;48.186;11.526;2024-03-02T11:10:40;22.40;48.20
34640;DHT22;22600;48.186;11.526;2024-03-02T11:13:10;22.40;48.20
34640;DHT22;22600;48.186;11.526;2024-03-02T11:18:03;22.50;48.20
34640;DHT22;22600;48.186;11.526;2024-03-02T11:20:30;22.40;48.20
34640;DHT22;22600;48.186;11.526;2024-03-02T11:22:56;22.40;48.20
34640;DHT22;22600;48.186;11.526;2024-03-02T11:25:25;22.40;48.20
34640;DHT22;22600;48.186;11.526;2024-03-02T11:32:57;22.40;48.30
34640;DHT22;22600;48.186;11.526;2024-03-02T11:35:23;22.40;48.30
34640;DHT22;22600;48.186;11.526;2024-03-02T11:37:50;22.40;48.40
34640;DHT22;22600;48.186;11.526;2024-03-02T11:42:42;22.40;48.50
34640;DHT22;22600;48.186;11.526;2024-03-02T11:45:08;22.40;48.50
34640;DHT22;22600;48.186;11.526;2024-03-02T11:47:34;22.40;48.50
34640;DHT22;22600;48.186;11.526;2024-03-02T11:49:59;22.40;48.50
34640;DHT22;22600;48.186;11.526;2024-03-02T11:52:24;22.40;48.50
34640;DHT22;22600;48.186;11.526;2024-03-02T11:57:20;22.40;48.50
34640;DHT22;22600;48.186;11.526;2024-03-02T11:59:48;22.50;48.60
34640;DHT22;22600;48.186;11.526;2024-03-02T12:02:18;22.40;48.50
34640;DHT22;22600;48.186;11.526;2024-03-02T12:07:10;22.40;48.50
34640;DHT22;22600;48.186;11.526;2024-03-02T12:09:36;22.40;48.50
34640;DHT22;22600;48.186;11.526;2024-03-02T12:12:02;22.40;48.50
34640;DHT22;22600;48.186;11.526;2024-03-02T12:16:54;22.40;48.60
34640;DHT22;22600;48.186;11.526;2024-03-02T12:19:21;22.40;48.50
34640;DHT22;22600;48.186;11.526;2024-03-02T12:24:12;22.40;48.60
34640;DHT22;22600;48.186;11.526;2024-03-02T12:26:38;22.40;48.60
34640;DHT22;22600;48.186;11.526;2024-03-02T12:31:29;22.40;48.40
34640;DHT22;22600;48.186;11.526;2024-03-02T12:33:55;22.40;48.30
34640;DHT22;22600;48.186;11.526;2024-03-02T12:36:21;22.40;48.20
34640;DHT22;22600;48.186;11.526;2024-03-02T12:38:47;22.40;48.00
34640;DHT22;22600;48.186;11.526;2024-03-02T12:41:15;22.40;47.70
34640;DHT22;22600;48.186;11.526;2024-03-02T12:43:41;22.40;47.50
34640;DHT22;22600;48.186;11.526;2024-03-02T12:46:07;22.40;47.50
34640;DHT22;22600;48.186;11.526;2024-03-02T12:48:32;22.40;47.30
34640;DHT22;22600;48.186;11.526;2024-03-02T12:50:58;22.40;47.10
34640;DHT22;22600;48.186;11.526;2024-03-02T12:55:50;22.40;46.60
34640;DHT22;22600;48.186;11.526;2024-03-02T12:58:19;22.30;46.40
34640;DHT22;22600;48.186;11.526;2024-03-02T13:00:44;22.40;46.30
34640;DHT22;22600;48.186;11.526;2024-03-02T13:03:11;22.30;46.30
34640;DHT22;22600;48.186;11.526;2024-03-02T13:05:36;22.40;46.10
34640;DHT22;22600;48.186;11.526;2024-03-02T13:10:30;22.30;46.10
34640;DHT22;22600;48.186;11.526;2024-03-02T13:15:21;22.30;46.20
34640;DHT22;22600;48.186;11.526;2024-03-02T13:17:47;22.40;46.30
34640;DHT22;22600;48.186;11.526;2024-03-02T13:22:39;22.30;46.20
34640;DHT22;22600;48.186;11.526;2024-03-02T13:25:05;22.30;46.20
34640;DHT22;22600;48.186;11.526;2024-03-02T13:27:31;22.40;46.30
34640;DHT22;22600;48.186;11.526;2024-03-02T13:29:57;22.30;46.30
34640;DHT22;22600;48.186;11.526;2024-03-02T13:32:23;22.40;46.30
34640;DHT22;22600;48.186;11.526;2024-03-02T13:34:49;22.30;46.30
34640;DHT22;22600;48.186;11.526;2024-03-02T13:39:40;22.30;46.30
34640;DHT22;22600;48.186;11.526;2024-03-02T13:42:08;22.40;46.40
34640;DHT22;22600;48.186;11.526;2024-03-02T13:44:35;22.30;46.40
34640;DHT22;22600;48.186;11.526;2024-03-02T13:47:02;22.30;46.40
34640;DHT22;22600;48.186;11.526;2024-03-02T13:49:27;22.40;46.40
34640;DHT22;22600;48.186;11.526;2024-03-02T13:52:02;22.40;46.40
34640;DHT22;22600;48.186;11.526;2024-03-02T13:54:29;22.40;46.50
34640;DHT22;22600;48.186;11.526;2024-03-02T13:56:55;22.40;46.50
34640;DHT22;22600;48.186;11.526;2024-03-02T13:59:23;22.40;46.50
34640;DHT22;22600;48.186;11.526;2024-03-02T14:01:48;22.40;46.50
34640;DHT22;22600;48.186;11.526;2024-03-02T14:04:15;22.40;46.50
34640;DHT22;22600;48.186;11.526;2024-03-02T14:06:40;22.30;46.40
34640;DHT22;22600;48.186;11.526;2024-03-02T14:09:08;22.40;46.50
34640;DHT22;22600;48.186;11.526;2024-03-02T14:14:01;22.30;46.40
34640;DHT22;22600;48.186;11.526;2024-03-02T14:16:26;22.30;46.40
34640;DHT22;22600;48.186;11.526;2024-03-02T14:18:52;22.30;46.40
34640;DHT22;22600;48.186;11.526;2024-03-02T14:21:17;22.30;46.40
34640;DHT22;22600;48.186;11.526;2024-03-02T14:23:43;22.30;46.40
34640;DHT22;22600;48.186;11.526;2024-03-02T14:26:08;22.40;46.40
34640;DHT22;22600;48.186;11.526;2024-03-02T14:28:34;22.30;46.40
34640;DHT22;22600;48.186;11.526;2024-03-02T14:30:59;22.30;46.40
34640;DHT22;22600;48.186;11.526;2024-03-02T14:33:26;22.40;46.40
34640;DHT22;22600;48.186;11.526;2024-03-02T14:35:51;22.40;46.40
34640;DHT22;22600;48.186;11.526;2024-03-02T14:38:17;22.20;46.30
34640;DHT22;22600;48.186;11.526;2024-03-02T14:43:08;22.30;46.30
34640;DHT22;22600;48.186;11.526;2024-03-02T14:50:26;22.30;46.30
34640;DHT22;22600;48.186;11.526;2024-03-02T14:52:52;22.40;46.30
34640;DHT22;22600;48.186;11.526;2024-03-02T14:57:43;22.30;46.30
34640;DHT22;22600;48.186;11.526;2024-03-02T15:00:09;22.30;46.30
34640;DHT22;22600;48.186;11.526;2024-03-02T15:07:28;22.40;46.30
34640;DHT22;22600;48.186;11.526;2024-03-02T15:09:53;22.30;46.20
34640;DHT22;22600;48.186;11.526;2024-03-02T15:12:20;22.30;46.20
34640;DHT22;22600;48.186;11.526;2024-03-02T15:14:45;22.30;46.30
34640;DHT22;22600;48.186;11.526;2024-03-02T15:17:12;22.30;46.20
34640;DHT22;22600;48.186;11.526;2024-03-02T15:19:44;22.30;46.30
34640;DHT22;22600;48.186;11.526;2024-03-02T15:22:10;22.30;46.30
34640;DHT22;22600;48.186;11.526;2024-03-02T15:24:35;22.30;46.30
34640;DHT22;22600;48.186;11.526;2024-03-02T15:27:01;22.30;46.30
34640;DHT22;22600;48.186;11.526;2024-03-02T15:29:31;22.30;46.30
34640;DHT22;22600;48.186;11.526;2024-03-02T15:31:56;22.30;46.20
34640;DHT22;22600;48.186;11.526;2024-03-02T15:36:51;17.40;43.80
34640;DHT22;22600;48.186;11.526;2024-03-02T15:39:16;22.30;46.20
34640;DHT22;22600;48.186;11.526;2024-03-02T15:41:43;22.30;46.20
34640;DHT22;22600;48.186;11.526;2024-03-02T15:44:09;22.30;46.20
34640;DHT22;22600;48.186;11.526;2024-03-02T15:46:34;22.30;46.20
34640;DHT22;22600;48.186;11.526;2024-03-02T15:49:00;22.30;46.20
34640;DHT22;22600;48.186;11.526;2024-03-02T15:51:26;22.30;46.20
34640;DHT22;22600;48.186;11.526;2024-03-02T15:53:51;22.30;46.20
34640;DHT22;22600;48.186;11.526;2024-03-02T15:56:17;22.30;46.20
34640;DHT22;22600;48.186;11.526;2024-03-02T15:58:42;22.30;46.20
34640;DHT22;22600;48.186;11.526;2024-03-02T16:01:08;22.30;46.30
34640;DHT22;22600;48.186;11.526;2024-03-02T16:03:33;24.80;47.50
34640;DHT22;22600;48.186;11.526;2024-03-02T16:05:59;22.30;46.30
34640;DHT22;22600;48.186;11.526;2024-03-02T16:08:24;22.30;46.30
34640;DHT22;22600;48.186;11.526;2024-03-02T16:10:50;22.30;46.30
34640;DHT22;22600;48.186;11.526;2024-03-02T16:13:16;22.30;46.30
34640;DHT22;22600;48.186;11.526;2024-03-02T16:15:42;22.30;46.30
34640;DHT22;22600;48.186;11.526;2024-03-02T16:18:07;22.30;46.30
34640;DHT22;22600;48.186;11.526;2024-03-02T16:20:33;22.30;46.40
34640;DHT22;22600;48.186;11.526;2024-03-02T16:22:58;22.30;46.30
34640;DHT22;22600;48.186;11.526;2024-03-02T16:25:24;22.20;46.30
34640;DHT22;22600;48.186;11.526;2024-03-02T16:27:50;22.30;46.30
34640;DHT22;22600;48.186;11.526;2024-03-02T16:30:16;22.30;46.40
34640;DHT22;22600;48.186;11.526;2024-03-02T16:32:43;22.30;46.40
34640;DHT22;22600;48.186;11.526;2024-03-02T16:35:09;22.30;46.50
34640;DHT22;22600;48.186;11.526;2024-03-02T16:37:34;22.30;46.50
34640;DHT22;22600;48.186;11.526;2024-03-02T16:40:00;22.30;46.50
34640;DHT22;22600;48.186;11.526;2024-03-02T16:42:25;22.30;46.50
34640;DHT22;22600;48.186;11.526;2024-03-02T16:44:51;22.30;46.50
34640;DHT22;22600;48.186;11.526;2024-03-02T16:47:20;22.30;46.40
34640;DHT22;22600;48.186;11.526;2024-03-02T16:49:46;22.30;46.50
34640;DHT22;22600;48.186;11.526;2024-03-02T16:52:11;20.60;45.70
34640;DHT22;22600;48.186;11.526;2024-03-02T16:54:38;22.30;46.50
34640;DHT22;22600;48.186;11.526;2024-03-02T16:57:03;22.30;46.50
34640;DHT22;22600;48.186;11.526;2024-03-02T16:59:29;22.30;46.40
34640;DHT22;22600;48.186;11.526;2024-03-02T17:01:54;22.30;46.50
34640;DHT22;22600;48.186;11.526;2024-03-02T17:04:20;22.20;46.40
34640;DHT22;22600;48.186;11.526;2024-03-02T17:06:45;22.30;46.40
34640;DHT22;22600;48.186;11.526;2024-03-02T17:09:12;22.20;46.40
34640;DHT22;22600;48.186;11.526;2024-03-02T17:11:38;22.20;46.40
34640;DHT22;22600;48.186;11.526;2024-03-02T17:14:03;22.20;46.50
34640;DHT22;22600;48.186;11.526;2024-03-02T17:16:30;22.20;46.40
34640;DHT22;22600;48.186;11.526;2024-03-02T17:18:55;22.20;46.50
34640;DHT22;22600;48.186;11.526;2024-03-02T17:21:20;22.20;46.50
34640;DHT22;22600;48.186;11.526;2024-03-02T17:23:47;22.20;46.50
34640;DHT22;22600;48.186;11.526;2024-03-02T17:26:12;22.20;46.50
34640;DHT22;22600;48.186;11.526;2024-03-02T17:28:38;22.20;46.50
34640;DHT22;22600;48.186;11.526;2024-03-02T17:31:03;22.20;46.50
34640;DHT22;22600;48.186;11.526;2024-03-02T17:33:29;22.20;46.50
34640;DHT22;22600;48.186;11.526;2024-03-02T17:38:22;22.20;46.50
34640;DHT22;22600;48.186;11.526;2024-03-02T17:40:48;22.20;46.50
34640;DHT22;22600;48.186;11.526;2024-03-02T17:43:13;22.20;46.50
34640;DHT22;22600;48.186;11.526;2024-03-02T17:45:39;22.20;46.50
34640;DHT22;22600;48.186;11.526;2024-03-02T17:48:06;22.20;46.50
34640;DHT22;22600;48.186;11.526;2024-03-02T17:52:57;22.20;46.50
34640;DHT22;22600;48.186;11.526;2024-03-02T17:55:23;22.20;46.50
34640;DHT22;22600;48.186;11.526;2024-03-02T17:57:49;22.20;46.60
34640;DHT22;22600;48.186;11.526;2024-03-02T18:00:16;22.20;46.50
34640;DHT22;22600;48.186;11.526;2024-03-02T18:02:42;22.20;46.50
34640;DHT22;22600;48.186;11.526;2024-03-02T18:05:08;22.20;46.60
34640;DHT22;22600;48.186;11.526;2024-03-02T18:07:34;22.20;46.60